Spencer, WI (54479)

2:11 AM CDT on July 10, 2014 (GMT -0500)
Marshfield Municipal (KMFI) Elev 1276 ft | 44.64 °N, 90.19 °W | Change Station

Current weather conditions updated 17 minutes ago

Clear
Clear
54 °F
Feels Like 54 °F
N
0
Wind Variable Wind from North

Today is forecast to be Warmer than yesterday.

Today
High -- | Low -- °F
--% Chance of Precip.
Yesterday
High -- | Low -- °F
Precip. -- in
5:25 AM 8:47 PM
Waxing Gibbous, 93% visible
Pressure 30.08 in
Visibility 10.0 miles
Clouds Clear
Dew Point 52 °F
Humidity 93%
Rainfall 0.00 in
Snow Depth Not available.
UV 0 out of 12
Pollen 3.60 out of 12
Air Quality Not available.
Flu Activity Sporadic
METAR KMFI 100654Z AUTO 00000KT 10SM CLR 12/11 A3008 RMK AO2 SLP186 T01220111

More Conditions Fewer Conditions

Pressure 30.08 in
Visibility 10.0 miles
Clouds Clear
Dew Point 52 °F
Humidity 93%
Rainfall 0.00 in
Snow Depth Not available.
UV 0 out of 12
Pollen 3.60 out of 12
Air Quality Not available.
Flu Activity Sporadic
METAR KMFI 100654Z AUTO 00000KT 10SM CLR 12/11 A3008 RMK AO2 SLP186 T01220111

More Conditions Fewer Conditions

10-Day Weather Forecast

Almanac

Astronomy

Jul. 10, 2014 Rise Set
Actual Time 5:25 AM CDT 8:47 PM CDT
Civil Twilight 4:49 AM CDT 9:23 PM CDT
Nautical Twilight 4:01 AM CDT 10:10 PM CDT
Astronomical Twilight 3:02 AM CDT 11:09 PM CDT
Moon 6:57 PM CDT 3:39 AM CDT
Length of Visible Light 16h 34m
Length of Day
15h 21m
Tomorrow will be 1m 22s shorter.
Waxing Gibbous, 93% of the Moon is Illuminated
Today
Waxing Gibbous
Jul 12
Full
Jul 18
Last Quarter
Jul 26
New
Aug 3
First Quarter

Today's Extremes

State Highs State Lows

Community

WunderPhotos

Upload Photos

1,732,083 photos uploaded!

Nearby

Snow Depth

Station Depth Elevation
No new snow has been reported.

Earthquake Activity

City Distance Mag. Time & Date
No recent earthquake activity has been reported nearby.
Minimum magnitude displayed is 2.5.

Coastal Water Temperatures

Place Temperature
No Stations Reporting

Nearby Weather Stations

Station Location Temp. Dew Point Humidity Wind Precip. Elev Updated Type
WIDOT Abbotsford - STH 29 3 mi E of Abbo, Abbotsford, WI 53 °F 51 °F 95% WNW  at  0 mph 0.00 in / hr 1400 ft 12:52 AM CDT MADIS
RAWS Mead WI, Blenker, WI 53 °F 53 °F 100% NE  at  2 mph 0.00 in / hr 1149 ft 1:05 AM CDT MADIS
WIDOT Pittsville - STH 13 @ STH 80, Pittsville, WI 52 °F 51 °F 96% SSW  at  0 mph 0.00 in / hr 1040 ft 1:20 AM CDT MADIS

Show More Stations Show Fewer Stations